Calypso N — V7LG5 — position and weather

sailwx.info

Track history (hours):
 
Tides and Currents Weather Stations Pressure Air Temp Water Temp Dewpoint Dewpoint Depression Visibility Wind Speed Wind Dir Waves Ship Positions

Calypso N

Last reported at 2017-Nov-30 08:49 UTC. Time now 2017-Dec-12 23:49 UTC.
Position N 35°31' W 127°25'.
Warning: this ship's position is 12 days out of date.

Length 200 m; draft 13.1 m.

Type: Cargo ship. MMSI: 538006275.

Date/timePositionNaut miles runAvg speedWind from/ knotsBaromVisibWave heightAir tempDewpointWater temp
2017-Nov-30 08:49N 35°31' W 127°25'412.0
2017-Nov-30 08:30N 35°35' W 127°27'  
2017-Nov-25 01:07N 54°20' W 130°57'110.9
2017-Nov-25 01:00N 54°19' W 130°55'5 9.2
2017-Nov-25 00:30N 54°17' W 130°48'611.3
2017-Nov-25 00:00N 54°15' W 130°39'611.9
2017-Nov-24 23:30N 54°13' W 130°30'5 9.9
2017-Nov-24 23:00N 54°12' W 130°21'5 9.6
2017-Nov-24 22:30N 54°17' W 130°22'2 2.6
2017-Nov-24 21:50N 54°19' W 130°21'0 0.0
2017-Nov-24 21:23N 54°19' W 130°21'0 0.0
2017-Nov-24 20:59N 54°19' W 130°21'0 0.0
2017-Nov-24 20:26N 54°19' W 130°21'0 0.0
2017-Nov-24 19:53N 54°19' W 130°21'0 0.1
2017-Nov-24 19:26N 54°19' W 130°21'0 0.1
2017-Nov-24 18:59N 54°19' W 130°21'0 0.1
2017-Nov-24 18:26N 54°19' W 130°21'0 0.0
2017-Nov-24 17:53N 54°19' W 130°21'0 0.1
2017-Nov-24 17:26N 54°19' W 130°21'0 0.0
2017-Nov-24 16:26N 54°19' W 130°21'0 0.1
2017-Nov-24 15:50N 54°19' W 130°21'0 0.2
2017-Nov-24 15:29N 54°19' W 130°21'0 0.0
2017-Nov-24 14:59N 54°19' W 130°21'0 0.1
2017-Nov-24 13:50N 54°19' W 130°21'0 0.1
2017-Nov-24 13:26N 54°19' W 130°21'0 0.0
2017-Nov-24 12:44N 54°19' W 130°21'0 0.0
2017-Nov-24 11:56N 54°19' W 130°21'0 0.1
2017-Nov-24 11:26N 54°19' W 130°21'0 0.0
2017-Nov-24 10:59N 54°19' W 130°21'0 0.0
2017-Nov-24 10:29N 54°19' W 130°21'0 0.0
2017-Nov-24 09:59N 54°19' W 130°21'0 0.0
2017-Nov-24 08:56N 54°19' W 130°21'0 0.1
2017-Nov-24 08:29N 54°19' W 130°21'0 0.1
2017-Nov-24 07:59N 54°19' W 130°21'0 0.0
2017-Nov-24 06:53N 54°19' W 130°21'0 0.1
2017-Nov-24 06:29N 54°19' W 130°22'0 0.0
2017-Nov-24 05:53N 54°19' W 130°22'0 0.1
2017-Nov-24 05:29N 54°19' W 130°22'0 0.0
2017-Nov-24 04:59N 54°19' W 130°22'0 0.0
2017-Nov-24 00:29N 54°19' W 130°21'0 0.1
2017-Nov-23 23:59N 54°19' W 130°21'0 0.1
2017-Nov-23 23:26N 54°19' W 130°21'0 0.0
2017-Nov-23 22:59N 54°19' W 130°21'0 0.1
2017-Nov-23 22:20N 54°19' W 130°21'0 0.1
2017-Nov-23 21:56N 54°19' W 130°21'0 0.2
2017-Nov-23 21:30N 54°19' W 130°21'0 0.3
2017-Nov-23 21:00N 54°19' W 130°22'0 0.2
2017-Nov-23 20:30N 54°19' W 130°21'2 4.2
2017-Nov-23 20:00N 54°17' W 130°22'3 5.8
2017-Nov-23 19:31N 54°14' W 130°20'0 0.1
2017-Nov-23 18:58N 54°14' W 130°20'0 0.0
2017-Nov-23 18:28N 54°14' W 130°20'0 0.0
2017-Nov-23 17:58N 54°14' W 130°20'0 0.0
2017-Nov-23 17:28N 54°14' W 130°20'0 0.0
2017-Nov-23 16:58N 54°14' W 130°20'0 0.0
2017-Nov-23 16:28N 54°14' W 130°20'0 0.0
2017-Nov-23 15:58N 54°14' W 130°20'0 0.0
2017-Nov-23 15:28N 54°14' W 130°20'0 0.0
2017-Nov-23 14:58N 54°14' W 130°20'0 0.0
2017-Nov-23 14:25N 54°14' W 130°20'0 0.0
2017-Nov-23 13:58N 54°14' W 130°20'0 0.0
2017-Nov-23 13:28N 54°14' W 130°20'0 0.0
2017-Nov-23 12:58N 54°14' W 130°20'0 0.0
2017-Nov-23 12:28N 54°14' W 130°20'0 0.0
2017-Nov-23 11:58N 54°14' W 130°20'0 0.0
2017-Nov-23 11:28N 54°14' W 130°20'0 0.0
2017-Nov-23 10:58N 54°14' W 130°20'0 0.0
2017-Nov-23 10:28N 54°14' W 130°20'0 0.0
2017-Nov-23 09:58N 54°14' W 130°20'0 0.0
2017-Nov-23 09:28N 54°14' W 130°20'0 0.0
2017-Nov-23 08:58N 54°14' W 130°20'0 0.0
2017-Nov-23 08:28N 54°14' W 130°20'0 0.0
2017-Nov-23 07:58N 54°14' W 130°20'0 0.0
2017-Nov-23 07:28N 54°14' W 130°20'0 0.0
2017-Nov-23 06:58N 54°14' W 130°20'0 0.0
2017-Nov-23 06:28N 54°14' W 130°20'0 0.0
2017-Nov-23 05:58N 54°14' W 130°20'0 0.0
2017-Nov-23 05:28N 54°14' W 130°20'0 0.1
2017-Nov-23 04:58N 54°14' W 130°20'0 0.1
2017-Nov-23 04:28N 54°14' W 130°20'0 0.0
2017-Nov-23 03:58N 54°14' W 130°20'0 0.0
2017-Nov-23 03:28N 54°14' W 130°20'0 0.0
2017-Nov-23 02:58N 54°14' W 130°20'0 0.0
2017-Nov-23 02:28N 54°14' W 130°20'0 0.0
2017-Nov-23 01:58N 54°14' W 130°20'0 0.0
2017-Nov-23 01:28N 54°14' W 130°20'0 0.0
2017-Nov-23 00:58N 54°14' W 130°20'0 0.0
2017-Nov-23 00:28N 54°14' W 130°20'0 0.0
2017-Nov-22 23:55N 54°14' W 130°20'0 0.1
2017-Nov-22 23:28N 54°14' W 130°20'0 0.0
2017-Nov-22 22:58N 54°14' W 130°20'0 0.0
2017-Nov-22 22:28N 54°14' W 130°20'0 0.0
2017-Nov-22 21:58N 54°14' W 130°20'0 0.0
2017-Nov-22 21:28N 54°14' W 130°20'0 0.0
2017-Nov-22 20:58N 54°14' W 130°20'0 0.0
2017-Nov-22 20:28N 54°14' W 130°20'0 0.0
2017-Nov-22 19:58N 54°14' W 130°20'0 0.0
2017-Nov-22 19:28N 54°14' W 130°20'  
Track history (hours):
 
Tides and Currents Weather Stations Pressure Air Temp Water Temp Dewpoint Dewpoint Depression Visibility Wind Speed Wind Dir Waves Ship Positions

Calypso N

Last reported at 2017-Nov-30 08:49 UTC. Time now 2017-Dec-12 23:49 UTC.
Position N 35°31' W 127°25'.
Warning: this ship's position is 12 days out of date.

Length 200 m; draft 13.1 m.

Type: Cargo ship. MMSI: 538006275.

Date/timePositionNaut miles runAvg speedWind from/ knotsBaromVisibWave heightAir tempDewpointWater temp
2017-Nov-30 08:49N 35°31' W 127°25'412.0
2017-Nov-30 08:30N 35°35' W 127°27'  
2017-Nov-25 01:07N 54°20' W 130°57'110.9
2017-Nov-25 01:00N 54°19' W 130°55'5 9.2
2017-Nov-25 00:30N 54°17' W 130°48'611.3
2017-Nov-25 00:00N 54°15' W 130°39'611.9
2017-Nov-24 23:30N 54°13' W 130°30'5 9.9
2017-Nov-24 23:00N 54°12' W 130°21'5 9.6
2017-Nov-24 22:30N 54°17' W 130°22'2 2.6
2017-Nov-24 21:50N 54°19' W 130°21'0 0.0
2017-Nov-24 21:23N 54°19' W 130°21'0 0.0
2017-Nov-24 20:59N 54°19' W 130°21'0 0.0
2017-Nov-24 20:26N 54°19' W 130°21'0 0.0
2017-Nov-24 19:53N 54°19' W 130°21'0 0.1
2017-Nov-24 19:26N 54°19' W 130°21'0 0.1
2017-Nov-24 18:59N 54°19' W 130°21'0 0.1
2017-Nov-24 18:26N 54°19' W 130°21'0 0.0
2017-Nov-24 17:53N 54°19' W 130°21'0 0.1
2017-Nov-24 17:26N 54°19' W 130°21'0 0.0
2017-Nov-24 16:26N 54°19' W 130°21'0 0.1
2017-Nov-24 15:50N 54°19' W 130°21'0 0.2
2017-Nov-24 15:29N 54°19' W 130°21'0 0.0
2017-Nov-24 14:59N 54°19' W 130°21'0 0.1
2017-Nov-24 13:50N 54°19' W 130°21'0 0.1
2017-Nov-24 13:26N 54°19' W 130°21'0 0.0
2017-Nov-24 12:44N 54°19' W 130°21'0 0.0
2017-Nov-24 11:56N 54°19' W 130°21'0 0.1
2017-Nov-24 11:26N 54°19' W 130°21'0 0.0
2017-Nov-24 10:59N 54°19' W 130°21'0 0.0
2017-Nov-24 10:29N 54°19' W 130°21'0 0.0
2017-Nov-24 09:59N 54°19' W 130°21'0 0.0
2017-Nov-24 08:56N 54°19' W 130°21'0 0.1
2017-Nov-24 08:29N 54°19' W 130°21'0 0.1
2017-Nov-24 07:59N 54°19' W 130°21'0 0.0
2017-Nov-24 06:53N 54°19' W 130°21'0 0.1
2017-Nov-24 06:29N 54°19' W 130°22'0 0.0
2017-Nov-24 05:53N 54°19' W 130°22'0 0.1
2017-Nov-24 05:29N 54°19' W 130°22'0 0.0
2017-Nov-24 04:59N 54°19' W 130°22'0 0.0
2017-Nov-24 00:29N 54°19' W 130°21'0 0.1
2017-Nov-23 23:59N 54°19' W 130°21'0 0.1
2017-Nov-23 23:26N 54°19' W 130°21'0 0.0
2017-Nov-23 22:59N 54°19' W 130°21'0 0.1
2017-Nov-23 22:20N 54°19' W 130°21'0 0.1
2017-Nov-23 21:56N 54°19' W 130°21'0 0.2
2017-Nov-23 21:30N 54°19' W 130°21'0 0.3
2017-Nov-23 21:00N 54°19' W 130°22'0 0.2
2017-Nov-23 20:30N 54°19' W 130°21'2 4.2
2017-Nov-23 20:00N 54°17' W 130°22'3 5.8
2017-Nov-23 19:31N 54°14' W 130°20'0 0.1
2017-Nov-23 18:58N 54°14' W 130°20'0 0.0
2017-Nov-23 18:28N 54°14' W 130°20'0 0.0
2017-Nov-23 17:58N 54°14' W 130°20'0 0.0
2017-Nov-23 17:28N 54°14' W 130°20'0 0.0
2017-Nov-23 16:58N 54°14' W 130°20'0 0.0
2017-Nov-23 16:28N 54°14' W 130°20'0 0.0
2017-Nov-23 15:58N 54°14' W 130°20'0 0.0
2017-Nov-23 15:28N 54°14' W 130°20'0 0.0
2017-Nov-23 14:58N 54°14' W 130°20'0 0.0
2017-Nov-23 14:25N 54°14' W 130°20'0 0.0
2017-Nov-23 13:58N 54°14' W 130°20'0 0.0
2017-Nov-23 13:28N 54°14' W 130°20'0 0.0
2017-Nov-23 12:58N 54°14' W 130°20'0 0.0
2017-Nov-23 12:28N 54°14' W 130°20'0 0.0
2017-Nov-23 11:58N 54°14' W 130°20'0 0.0
2017-Nov-23 11:28N 54°14' W 130°20'0 0.0
2017-Nov-23 10:58N 54°14' W 130°20'0 0.0
2017-Nov-23 10:28N 54°14' W 130°20'0 0.0
2017-Nov-23 09:58N 54°14' W 130°20'0 0.0
2017-Nov-23 09:28N 54°14' W 130°20'0 0.0
2017-Nov-23 08:58N 54°14' W 130°20'0 0.0
2017-Nov-23 08:28N 54°14' W 130°20'0 0.0
2017-Nov-23 07:58N 54°14' W 130°20'0 0.0
2017-Nov-23 07:28N 54°14' W 130°20'0 0.0
2017-Nov-23 06:58N 54°14' W 130°20'0 0.0
2017-Nov-23 06:28N 54°14' W 130°20'0 0.0
2017-Nov-23 05:58N 54°14' W 130°20'0 0.0
2017-Nov-23 05:28N 54°14' W 130°20'0 0.1
2017-Nov-23 04:58N 54°14' W 130°20'0 0.1
2017-Nov-23 04:28N 54°14' W 130°20'0 0.0
2017-Nov-23 03:58N 54°14' W 130°20'0 0.0
2017-Nov-23 03:28N 54°14' W 130°20'0 0.0
2017-Nov-23 02:58N 54°14' W 130°20'0 0.0
2017-Nov-23 02:28N 54°14' W 130°20'0 0.0
2017-Nov-23 01:58N 54°14' W 130°20'0 0.0
2017-Nov-23 01:28N 54°14' W 130°20'0 0.0
2017-Nov-23 00:58N 54°14' W 130°20'0 0.0
2017-Nov-23 00:28N 54°14' W 130°20'0 0.0
2017-Nov-22 23:55N 54°14' W 130°20'0 0.1
2017-Nov-22 23:28N 54°14' W 130°20'0 0.0
2017-Nov-22 22:58N 54°14' W 130°20'0 0.0
2017-Nov-22 22:28N 54°14' W 130°20'0 0.0
2017-Nov-22 21:58N 54°14' W 130°20'0 0.0
2017-Nov-22 21:28N 54°14' W 130°20'0 0.0
2017-Nov-22 20:58N 54°14' W 130°20'0 0.0
2017-Nov-22 20:28N 54°14' W 130°20'0 0.0
2017-Nov-22 19:58N 54°14' W 130°20'0 0.0
2017-Nov-22 19:28N 54°14' W 130°20'  

Dump ship's entire track history